sensor_id;sensor_type;location;lat;lon;timestamp;temperature;humidity
39021;DHT22;25188;51.958;5.842;2024-02-16T00:00:30;12.00;99.90
39021;DHT22;25188;51.958;5.842;2024-02-16T00:02:56;12.00;99.90
39021;DHT22;25188;51.958;5.842;2024-02-16T00:05:24;12.00;99.90
39021;DHT22;25188;51.958;5.842;2024-02-16T00:07:50;12.00;99.90
39021;DHT22;25188;51.958;5.842;2024-02-16T00:10:16;12.00;99.90
39021;DHT22;25188;51.958;5.842;2024-02-16T00:12:44;12.00;99.90
39021;DHT22;25188;51.958;5.842;2024-02-16T00:15:10;12.00;99.90
39021;DHT22;25188;51.958;5.842;2024-02-16T00:17:36;11.90;99.90
39021;DHT22;25188;51.958;5.842;2024-02-16T00:20:03;12.00;99.90
39021;DHT22;25188;51.958;5.842;2024-02-16T00:22:29;12.00;99.90
39021;DHT22;25188;51.958;5.842;2024-02-16T00:24:55;12.00;99.90
39021;DHT22;25188;51.958;5.842;2024-02-16T00:27:21;12.00;99.90
39021;DHT22;25188;51.958;5.842;2024-02-16T00:29:46;12.00;99.90
39021;DHT22;25188;51.958;5.842;2024-02-16T00:32:12;12.00;99.90
39021;DHT22;25188;51.958;5.842;2024-02-16T00:34:38;12.00;99.90
39021;DHT22;25188;51.958;5.842;2024-02-16T00:37:07;12.00;99.90
39021;DHT22;25188;51.958;5.842;2024-02-16T00:39:38;11.90;99.90
39021;DHT22;25188;51.958;5.842;2024-02-16T00:42:06;11.90;99.90
39021;DHT22;25188;51.958;5.842;2024-02-16T00:44:32;11.90;99.90
39021;DHT22;25188;51.958;5.842;2024-02-16T00:46:58;11.90;99.90
39021;DHT22;25188;51.958;5.842;2024-02-16T00:49:23;11.90;99.90
39021;DHT22;25188;51.958;5.842;2024-02-16T00:51:49;11.90;99.90
39021;DHT22;25188;51.958;5.842;2024-02-16T00:54:16;11.90;99.90
39021;DHT22;25188;51.958;5.842;2024-02-16T00:56:42;11.90;99.90
39021;DHT22;25188;51.958;5.842;2024-02-16T00:59:08;11.90;99.90
39021;DHT22;25188;51.958;5.842;2024-02-16T01:01:35;11.90;99.90
39021;DHT22;25188;51.958;5.842;2024-02-16T01:04:02;11.80;99.90
39021;DHT22;25188;51.958;5.842;2024-02-16T01:06:27;11.90;99.90
39021;DHT22;25188;51.958;5.842;2024-02-16T01:08:53;11.90;99.90
39021;DHT22;25188;51.958;5.842;2024-02-16T01:11:19;11.80;99.90
39021;DHT22;25188;51.958;5.842;2024-02-16T01:13:46;11.90;99.90
39021;DHT22;25188;51.958;5.842;2024-02-16T01:16:12;11.90;99.90
39021;DHT22;25188;51.958;5.842;2024-02-16T01:18:39;11.90;99.90
39021;DHT22;25188;51.958;5.842;2024-02-16T01:21:05;11.80;99.90
39021;DHT22;25188;51.958;5.842;2024-02-16T01:23:31;11.80;99.90
39021;DHT22;25188;51.958;5.842;2024-02-16T01:25:57;11.80;99.90
39021;DHT22;25188;51.958;5.842;2024-02-16T01:28:22;11.80;99.90
39021;DHT22;25188;51.958;5.842;2024-02-16T01:30:49;11.80;99.90
39021;DHT22;25188;51.958;5.842;2024-02-16T01:33:14;11.80;99.90
39021;DHT22;25188;51.958;5.842;2024-02-16T01:35:40;11.80;99.90
39021;DHT22;25188;51.958;5.842;2024-02-16T01:38:06;11.70;99.90
39021;DHT22;25188;51.958;5.842;2024-02-16T01:40:32;11.70;99.90
39021;DHT22;25188;51.958;5.842;2024-02-16T01:42:57;11.70;99.90
39021;DHT22;25188;51.958;5.842;2024-02-16T01:45:23;11.70;99.90
39021;DHT22;25188;51.958;5.842;2024-02-16T01:47:50;11.70;99.90
39021;DHT22;25188;51.958;5.842;2024-02-16T01:50:17;11.70;99.90
39021;DHT22;25188;51.958;5.842;2024-02-16T01:52:44;11.70;99.90
39021;DHT22;25188;51.958;5.842;2024-02-16T01:55:10;11.60;99.90
39021;DHT22;25188;51.958;5.842;2024-02-16T01:57:42;11.60;99.90
39021;DHT22;25188;51.958;5.842;2024-02-16T02:00:08;11.60;99.90
39021;DHT22;25188;51.958;5.842;2024-02-16T02:02:37;11.60;99.90
39021;DHT22;25188;51.958;5.842;2024-02-16T02:05:03;11.60;99.90
39021;DHT22;25188;51.958;5.842;2024-02-16T02:07:29;11.60;99.90
39021;DHT22;25188;51.958;5.842;2024-02-16T02:09:55;11.50;99.90
39021;DHT22;25188;51.958;5.842;2024-02-16T02:12:21;11.50;99.90
39021;DHT22;25188;51.958;5.842;2024-02-16T02:14:51;11.50;99.90
39021;DHT22;25188;51.958;5.842;2024-02-16T02:17:18;11.50;99.90
39021;DHT22;25188;51.958;5.842;2024-02-16T02:19:45;11.50;99.90
39021;DHT22;25188;51.958;5.842;2024-02-16T02:22:16;11.50;99.90
39021;DHT22;25188;51.958;5.842;2024-02-16T02:24:43;11.50;99.90
39021;DHT22;25188;51.958;5.842;2024-02-16T02:27:10;11.50;99.90
39021;DHT22;25188;51.958;5.842;2024-02-16T02:29:36;11.50;99.90
39021;DHT22;25188;51.958;5.842;2024-02-16T02:32:01;11.40;99.90
39021;DHT22;25188;51.958;5.842;2024-02-16T02:34:27;11.40;99.90
39021;DHT22;25188;51.958;5.842;2024-02-16T02:36:53;11.50;99.90
39021;DHT22;25188;51.958;5.842;2024-02-16T02:39:19;11.40;99.90
39021;DHT22;25188;51.958;5.842;2024-02-16T02:41:44;11.40;99.90
39021;DHT22;25188;51.958;5.842;2024-02-16T02:44:10;11.40;99.90
39021;DHT22;25188;51.958;5.842;2024-02-16T02:46:36;11.40;99.90
39021;DHT22;25188;51.958;5.842;2024-02-16T02:49:02;11.40;99.90
39021;DHT22;25188;51.958;5.842;2024-02-16T02:51:29;11.30;99.90
39021;DHT22;25188;51.958;5.842;2024-02-16T02:53:55;11.30;99.90
39021;DHT22;25188;51.958;5.842;2024-02-16T02:56:20;11.20;99.90
39021;DHT22;25188;51.958;5.842;2024-02-16T02:58:46;11.20;99.90
39021;DHT22;25188;51.958;5.842;2024-02-16T03:01:13;11.20;99.90
39021;DHT22;25188;51.958;5.842;2024-02-16T03:03:39;11.20;99.90
39021;DHT22;25188;51.958;5.842;2024-02-16T03:06:06;11.20;99.90
39021;DHT22;25188;51.958;5.842;2024-02-16T03:08:33;11.20;99.90
39021;DHT22;25188;51.958;5.842;2024-02-16T03:10:58;11.20;99.90
39021;DHT22;25188;51.958;5.842;2024-02-16T03:13:26;11.30;99.90
39021;DHT22;25188;51.958;5.842;2024-02-16T03:15:52;11.30;99.90
39021;DHT22;25188;51.958;5.842;2024-02-16T03:18:18;11.30;99.90
39021;DHT22;25188;51.958;5.842;2024-02-16T03:20:45;11.40;99.90
39021;DHT22;25188;51.958;5.842;2024-02-16T03:23:14;11.40;99.90
39021;DHT22;25188;51.958;5.842;2024-02-16T03:25:40;11.40;99.90
39021;DHT22;25188;51.958;5.842;2024-02-16T03:28:08;11.40;99.90
39021;DHT22;25188;51.958;5.842;2024-02-16T03:30:34;11.40;99.90
39021;DHT22;25188;51.958;5.842;2024-02-16T03:33:00;11.40;99.90
39021;DHT22;25188;51.958;5.842;2024-02-16T03:35:26;11.40;99.90
39021;DHT22;25188;51.958;5.842;2024-02-16T03:37:53;11.40;99.90
39021;DHT22;25188;51.958;5.842;2024-02-16T03:40:18;11.40;99.90
39021;DHT22;25188;51.958;5.842;2024-02-16T03:42:44;11.40;99.90
39021;DHT22;25188;51.958;5.842;2024-02-16T03:45:10;11.40;99.90
39021;DHT22;25188;51.958;5.842;2024-02-16T03:47:36;11.40;99.90
39021;DHT22;25188;51.958;5.842;2024-02-16T03:50:03;11.50;99.90
39021;DHT22;25188;51.958;5.842;2024-02-16T03:52:28;11.60;99.90
39021;DHT22;25188;51.958;5.842;2024-02-16T03:54:54;11.60;99.90
39021;DHT22;25188;51.958;5.842;2024-02-16T03:57:20;11.70;99.90
39021;DHT22;25188;51.958;5.842;2024-02-16T03:59:45;11.80;99.90
39021;DHT22;25188;51.958;5.842;2024-02-16T04:02:12;11.80;99.90
39021;DHT22;25188;51.958;5.842;2024-02-16T04:04:41;11.90;99.90
39021;DHT22;25188;51.958;5.842;2024-02-16T04:07:07;11.90;99.90
39021;DHT22;25188;51.958;5.842;2024-02-16T04:09:33;12.00;99.90
39021;DHT22;25188;51.958;5.842;2024-02-16T04:12:00;12.10;99.90
39021;DHT22;25188;51.958;5.842;2024-02-16T04:14:26;12.10;99.90
39021;DHT22;25188;51.958;5.842;2024-02-16T04:16:52;12.10;99.90
39021;DHT22;25188;51.958;5.842;2024-02-16T04:19:18;12.10;99.90
39021;DHT22;25188;51.958;5.842;2024-02-16T04:21:44;12.20;99.90
39021;DHT22;25188;51.958;5.842;2024-02-16T04:24:09;12.20;99.90
39021;DHT22;25188;51.958;5.842;2024-02-16T04:26:35;12.20;99.90
39021;DHT22;25188;51.958;5.842;2024-02-16T04:29:02;12.20;99.90
39021;DHT22;25188;51.958;5.842;2024-02-16T04:31:29;12.30;99.90
39021;DHT22;25188;51.958;5.842;2024-02-16T04:33:55;12.30;99.90
39021;DHT22;25188;51.958;5.842;2024-02-16T04:36:21;12.30;99.90
39021;DHT22;25188;51.958;5.842;2024-02-16T04:38:47;12.40;99.90
39021;DHT22;25188;51.958;5.842;2024-02-16T04:41:12;12.30;99.90
39021;DHT22;25188;51.958;5.842;2024-02-16T04:43:38;12.40;99.90
39021;DHT22;25188;51.958;5.842;2024-02-16T04:46:04;12.40;99.90
39021;DHT22;25188;51.958;5.842;2024-02-16T04:48:30;12.30;99.90
39021;DHT22;25188;51.958;5.842;2024-02-16T04:50:57;12.40;99.90
39021;DHT22;25188;51.958;5.842;2024-02-16T04:53:23;12.40;99.90
39021;DHT22;25188;51.958;5.842;2024-02-16T04:55:49;12.40;99.90
39021;DHT22;25188;51.958;5.842;2024-02-16T04:58:14;12.40;99.90
39021;DHT22;25188;51.958;5.842;2024-02-16T05:00:40;12.50;99.90
39021;DHT22;25188;51.958;5.842;2024-02-16T05:03:06;12.50;99.90
39021;DHT22;25188;51.958;5.842;2024-02-16T05:05:32;12.50;99.90
39021;DHT22;25188;51.958;5.842;2024-02-16T05:07:58;12.50;99.90
39021;DHT22;25188;51.958;5.842;2024-02-16T05:10:24;12.50;99.90
39021;DHT22;25188;51.958;5.842;2024-02-16T05:12:49;12.50;99.90
39021;DHT22;25188;51.958;5.842;2024-02-16T05:15:15;12.50;99.90
39021;DHT22;25188;51.958;5.842;2024-02-16T05:17:42;12.50;99.90
39021;DHT22;25188;51.958;5.842;2024-02-16T05:20:13;12.50;99.90
39021;DHT22;25188;51.958;5.842;2024-02-16T05:22:42;12.50;99.90
39021;DHT22;25188;51.958;5.842;2024-02-16T05:25:09;12.50;99.90
39021;DHT22;25188;51.958;5.842;2024-02-16T05:27:36;12.50;99.90
39021;DHT22;25188;51.958;5.842;2024-02-16T05:30:04;12.50;99.90
39021;DHT22;25188;51.958;5.842;2024-02-16T05:32:35;12.50;99.90
39021;DHT22;25188;51.958;5.842;2024-02-16T05:35:05;12.50;99.90
39021;DHT22;25188;51.958;5.842;2024-02-16T05:37:40;12.60;99.90
39021;DHT22;25188;51.958;5.842;2024-02-16T05:40:09;12.50;99.90
39021;DHT22;25188;51.958;5.842;2024-02-16T05:42:48;12.50;99.90
39021;DHT22;25188;51.958;5.842;2024-02-16T05:45:17;12.50;99.90
39021;DHT22;25188;51.958;5.842;2024-02-16T05:47:45;12.50;99.90
39021;DHT22;25188;51.958;5.842;2024-02-16T05:50:11;12.50;99.90
39021;DHT22;25188;51.958;5.842;2024-02-16T05:52:38;12.60;99.90
39021;DHT22;25188;51.958;5.842;2024-02-16T05:55:05;12.60;99.90
39021;DHT22;25188;51.958;5.842;2024-02-16T05:57:31;12.60;99.90
39021;DHT22;25188;51.958;5.842;2024-02-16T05:59:57;12.60;99.90
39021;DHT22;25188;51.958;5.842;2024-02-16T06:02:23;12.60;99.90
39021;DHT22;25188;51.958;5.842;2024-02-16T06:04:52;12.60;99.90
39021;DHT22;25188;51.958;5.842;2024-02-16T06:07:17;12.60;99.90
39021;DHT22;25188;51.958;5.842;2024-02-16T06:09:43;12.60;99.90
39021;DHT22;25188;51.958;5.842;2024-02-16T06:12:09;12.60;99.90
39021;DHT22;25188;51.958;5.842;2024-02-16T06:14:35;12.60;99.90
39021;DHT22;25188;51.958;5.842;2024-02-16T06:17:02;12.60;99.90
39021;DHT22;25188;51.958;5.842;2024-02-16T06:19:28;12.60;99.90
39021;DHT22;25188;51.958;5.842;2024-02-16T06:21:54;12.60;99.90
39021;DHT22;25188;51.958;5.842;2024-02-16T06:24:21;12.60;99.90
39021;DHT22;25188;51.958;5.842;2024-02-16T06:26:47;12.60;99.90
39021;DHT22;25188;51.958;5.842;2024-02-16T06:29:13;12.60;99.90
39021;DHT22;25188;51.958;5.842;2024-02-16T06:31:39;12.60;99.90
39021;DHT22;25188;51.958;5.842;2024-02-16T06:34:05;12.60;99.90
39021;DHT22;25188;51.958;5.842;2024-02-16T06:36:30;12.60;99.90
39021;DHT22;25188;51.958;5.842;2024-02-16T06:38:56;12.60;99.90
39021;DHT22;25188;51.958;5.842;2024-02-16T06:41:22;12.60;99.90
39021;DHT22;25188;51.958;5.842;2024-02-16T06:43:47;12.60;99.90
39021;DHT22;25188;51.958;5.842;2024-02-16T06:46:13;12.60;99.90
39021;DHT22;25188;51.958;5.842;2024-02-16T06:48:39;12.60;99.90
39021;DHT22;25188;51.958;5.842;2024-02-16T06:51:04;12.70;99.90
39021;DHT22;25188;51.958;5.842;2024-02-16T06:53:30;12.70;99.90
39021;DHT22;25188;51.958;5.842;2024-02-16T06:55:56;12.60;99.90
39021;DHT22;25188;51.958;5.842;2024-02-16T06:58:21;12.70;99.90
39021;DHT22;25188;51.958;5.842;2024-02-16T07:00:47;12.60;99.90
39021;DHT22;25188;51.958;5.842;2024-02-16T07:03:13;12.60;99.90
39021;DHT22;25188;51.958;5.842;2024-02-16T07:05:38;12.60;99.90
39021;DHT22;25188;51.958;5.842;2024-02-16T07:08:05;12.60;99.90
39021;DHT22;25188;51.958;5.842;2024-02-16T07:10:33;12.60;99.90
39021;DHT22;25188;51.958;5.842;2024-02-16T07:12:59;12.60;99.90
39021;DHT22;25188;51.958;5.842;2024-02-16T07:15:24;12.60;99.90
39021;DHT22;25188;51.958;5.842;2024-02-16T07:17:51;12.70;99.90
39021;DHT22;25188;51.958;5.842;2024-02-16T07:20:17;12.60;99.90
39021;DHT22;25188;51.958;5.842;2024-02-16T07:22:43;12.70;99.90
39021;DHT22;25188;51.958;5.842;2024-02-16T07:25:11;12.70;99.90
39021;DHT22;25188;51.958;5.842;2024-02-16T07:27:38;12.70;99.90
39021;DHT22;25188;51.958;5.842;2024-02-16T07:30:04;12.70;99.90
39021;DHT22;25188;51.958;5.842;2024-02-16T07:32:30;12.70;99.90
39021;DHT22;25188;51.958;5.842;2024-02-16T07:34:56;12.70;99.90
39021;DHT22;25188;51.958;5.842;2024-02-16T07:37:21;12.70;99.90
39021;DHT22;25188;51.958;5.842;2024-02-16T07:39:47;12.70;99.90
39021;DHT22;25188;51.958;5.842;2024-02-16T07:42:13;12.80;99.90
39021;DHT22;25188;51.958;5.842;2024-02-16T07:44:39;12.80;99.90
39021;DHT22;25188;51.958;5.842;2024-02-16T07:47:05;12.80;99.90
39021;DHT22;25188;51.958;5.842;2024-02-16T07:49:31;12.90;99.90
39021;DHT22;25188;51.958;5.842;2024-02-16T07:51:57;12.80;99.90
39021;DHT22;25188;51.958;5.842;2024-02-16T07:54:25;12.90;99.90
39021;DHT22;25188;51.958;5.842;2024-02-16T07:56:51;12.90;99.90
39021;DHT22;25188;51.958;5.842;2024-02-16T07:59:17;12.90;99.90
39021;DHT22;25188;51.958;5.842;2024-02-16T08:01:44;12.90;99.90
39021;DHT22;25188;51.958;5.842;2024-02-16T08:04:11;12.90;99.90
39021;DHT22;25188;51.958;5.842;2024-02-16T08:06:37;13.00;99.90
39021;DHT22;25188;51.958;5.842;2024-02-16T08:09:03;13.00;99.90
39021;DHT22;25188;51.958;5.842;2024-02-16T08:11:29;13.00;99.90
39021;DHT22;25188;51.958;5.842;2024-02-16T08:13:55;13.00;99.90
39021;DHT22;25188;51.958;5.842;2024-02-16T08:16:26;13.10;99.90
39021;DHT22;25188;51.958;5.842;2024-02-16T08:18:52;13.10;99.90
39021;DHT22;25188;51.958;5.842;2024-02-16T08:21:17;13.10;99.90
39021;DHT22;25188;51.958;5.842;2024-02-16T08:23:43;13.20;99.90
39021;DHT22;25188;51.958;5.842;2024-02-16T08:26:09;13.20;99.90
39021;DHT22;25188;51.958;5.842;2024-02-16T08:28:34;13.20;99.90
39021;DHT22;25188;51.958;5.842;2024-02-16T08:31:00;13.30;99.90
39021;DHT22;25188;51.958;5.842;2024-02-16T08:33:26;13.30;99.90
39021;DHT22;25188;51.958;5.842;2024-02-16T08:35:51;13.30;99.90
39021;DHT22;25188;51.958;5.842;2024-02-16T08:38:18;13.30;99.90
39021;DHT22;25188;51.958;5.842;2024-02-16T08:40:43;13.30;99.90
39021;DHT22;25188;51.958;5.842;2024-02-16T08:43:09;13.40;99.90
39021;DHT22;25188;51.958;5.842;2024-02-16T08:45:35;13.40;99.90
39021;DHT22;25188;51.958;5.842;2024-02-16T08:48:01;13.50;99.90
39021;DHT22;25188;51.958;5.842;2024-02-16T08:50:29;13.50;99.90
39021;DHT22;25188;51.958;5.842;2024-02-16T08:52:55;13.50;99.90
39021;DHT22;25188;51.958;5.842;2024-02-16T08:55:21;13.60;99.90
39021;DHT22;25188;51.958;5.842;2024-02-16T08:57:47;13.70;99.90
39021;DHT22;25188;51.958;5.842;2024-02-16T09:00:13;13.70;99.90
39021;DHT22;25188;51.958;5.842;2024-02-16T09:02:40;13.70;99.90
39021;DHT22;25188;51.958;5.842;2024-02-16T09:05:06;13.80;99.90
39021;DHT22;25188;51.958;5.842;2024-02-16T09:07:35;13.80;99.90
39021;DHT22;25188;51.958;5.842;2024-02-16T09:10:01;13.90;99.90
39021;DHT22;25188;51.958;5.842;2024-02-16T09:12:27;13.80;99.90
39021;DHT22;25188;51.958;5.842;2024-02-16T09:14:53;13.80;99.90
39021;DHT22;25188;51.958;5.842;2024-02-16T09:17:18;13.90;99.90
39021;DHT22;25188;51.958;5.842;2024-02-16T09:19:45;13.90;99.90
39021;DHT22;25188;51.958;5.842;2024-02-16T09:22:11;14.00;99.90
39021;DHT22;25188;51.958;5.842;2024-02-16T09:24:37;14.00;99.90
39021;DHT22;25188;51.958;5.842;2024-02-16T09:27:04;14.00;99.90
39021;DHT22;25188;51.958;5.842;2024-02-16T09:29:30;14.10;99.90
39021;DHT22;25188;51.958;5.842;2024-02-16T09:31:56;14.10;99.90
39021;DHT22;25188;51.958;5.842;2024-02-16T09:34:22;14.10;99.90
39021;DHT22;25188;51.958;5.842;2024-02-16T09:36:47;14.10;99.90
39021;DHT22;25188;51.958;5.842;2024-02-16T09:39:13;14.20;99.90
39021;DHT22;25188;51.958;5.842;2024-02-16T09:41:41;14.10;99.90
39021;DHT22;25188;51.958;5.842;2024-02-16T09:44:07;14.10;99.90
39021;DHT22;25188;51.958;5.842;2024-02-16T09:46:34;14.10;99.90
39021;DHT22;25188;51.958;5.842;2024-02-16T09:49:02;14.10;99.90
39021;DHT22;25188;51.958;5.842;2024-02-16T09:51:29;14.10;99.90
39021;DHT22;25188;51.958;5.842;2024-02-16T09:53:54;14.10;99.90
39021;DHT22;25188;51.958;5.842;2024-02-16T09:56:23;14.10;99.90
39021;DHT22;25188;51.958;5.842;2024-02-16T09:58:52;14.20;99.90
39021;DHT22;25188;51.958;5.842;2024-02-16T10:01:18;14.20;99.90
39021;DHT22;25188;51.958;5.842;2024-02-16T10:03:47;14.20;99.90
39021;DHT22;25188;51.958;5.842;2024-02-16T10:06:14;14.20;99.90
39021;DHT22;25188;51.958;5.842;2024-02-16T10:08:54;14.20;99.90
39021;DHT22;25188;51.958;5.842;2024-02-16T10:11:27;14.30;99.90
39021;DHT22;25188;51.958;5.842;2024-02-16T10:14:04;14.30;99.90
39021;DHT22;25188;51.958;5.842;2024-02-16T10:16:30;14.30;99.90
39021;DHT22;25188;51.958;5.842;2024-02-16T10:19:03;14.40;99.90
39021;DHT22;25188;51.958;5.842;2024-02-16T10:21:30;14.40;99.90
39021;DHT22;25188;51.958;5.842;2024-02-16T10:24:00;14.40;99.90
39021;DHT22;25188;51.958;5.842;2024-02-16T10:26:28;14.40;99.90
39021;DHT22;25188;51.958;5.842;2024-02-16T10:28:55;14.40;99.90
39021;DHT22;25188;51.958;5.842;2024-02-16T10:31:25;14.40;99.90
39021;DHT22;25188;51.958;5.842;2024-02-16T10:33:58;14.40;99.90
39021;DHT22;25188;51.958;5.842;2024-02-16T10:36:25;14.30;99.90
39021;DHT22;25188;51.958;5.842;2024-02-16T10:38:54;14.30;99.90
39021;DHT22;25188;51.958;5.842;2024-02-16T10:41:22;14.30;99.90
39021;DHT22;25188;51.958;5.842;2024-02-16T10:43:49;14.30;99.90
39021;DHT22;25188;51.958;5.842;2024-02-16T10:46:16;14.30;99.90
39021;DHT22;25188;51.958;5.842;2024-02-16T10:48:42;14.20;99.90
39021;DHT22;25188;51.958;5.842;2024-02-16T10:51:09;14.20;99.90
39021;DHT22;25188;51.958;5.842;2024-02-16T10:53:35;14.20;99.90
39021;DHT22;25188;51.958;5.842;2024-02-16T10:56:02;14.20;99.90
39021;DHT22;25188;51.958;5.842;2024-02-16T10:58:28;14.20;99.90
39021;DHT22;25188;51.958;5.842;2024-02-16T11:00:57;14.20;99.90
39021;DHT22;25188;51.958;5.842;2024-02-16T11:03:24;14.20;99.90
39021;DHT22;25188;51.958;5.842;2024-02-16T11:05:50;14.10;99.90
39021;DHT22;25188;51.958;5.842;2024-02-16T11:08:18;14.10;99.90
39021;DHT22;25188;51.958;5.842;2024-02-16T11:11:01;14.10;99.90
39021;DHT22;25188;51.958;5.842;2024-02-16T11:13:32;14.10;99.90
39021;DHT22;25188;51.958;5.842;2024-02-16T11:15:59;14.00;99.90
39021;DHT22;25188;51.958;5.842;2024-02-16T11:18:30;14.00;99.90
39021;DHT22;25188;51.958;5.842;2024-02-16T11:20:59;13.90;99.90
39021;DHT22;25188;51.958;5.842;2024-02-16T11:23:29;13.90;99.90
39021;DHT22;25188;51.958;5.842;2024-02-16T11:26:03;13.90;99.90
39021;DHT22;25188;51.958;5.842;2024-02-16T11:28:32;13.80;99.90
39021;DHT22;25188;51.958;5.842;2024-02-16T11:30:59;13.80;99.90
39021;DHT22;25188;51.958;5.842;2024-02-16T11:33:25;13.70;99.90
39021;DHT22;25188;51.958;5.842;2024-02-16T11:36:01;13.70;99.90
39021;DHT22;25188;51.958;5.842;2024-02-16T11:38:27;13.60;99.90
39021;DHT22;25188;51.958;5.842;2024-02-16T11:40:54;13.40;99.90
39021;DHT22;25188;51.958;5.842;2024-02-16T11:43:24;13.40;99.90
39021;DHT22;25188;51.958;5.842;2024-02-16T11:45:50;13.30;99.90
39021;DHT22;25188;51.958;5.842;2024-02-16T11:48:23;13.20;99.90
39021;DHT22;25188;51.958;5.842;2024-02-16T11:50:55;13.10;99.90
39021;DHT22;25188;51.958;5.842;2024-02-16T11:53:23;13.00;99.90
39021;DHT22;25188;51.958;5.842;2024-02-16T11:55:49;13.00;99.90
39021;DHT22;25188;51.958;5.842;2024-02-16T11:58:19;12.90;99.90
39021;DHT22;25188;51.958;5.842;2024-02-16T12:00:46;12.90;99.90
39021;DHT22;25188;51.958;5.842;2024-02-16T12:03:18;12.80;99.90
39021;DHT22;25188;51.958;5.842;2024-02-16T12:05:58;12.80;99.90
39021;DHT22;25188;51.958;5.842;2024-02-16T12:08:31;12.80;99.90
39021;DHT22;25188;51.958;5.842;2024-02-16T12:10:57;12.80;99.90
39021;DHT22;25188;51.958;5.842;2024-02-16T12:13:23;12.80;99.90
39021;DHT22;25188;51.958;5.842;2024-02-16T12:15:52;12.80;99.90
39021;DHT22;25188;51.958;5.842;2024-02-16T12:18:24;12.80;99.90
39021;DHT22;25188;51.958;5.842;2024-02-16T12:21:04;12.80;99.90
39021;DHT22;25188;51.958;5.842;2024-02-16T12:23:36;12.80;99.90
39021;DHT22;25188;51.958;5.842;2024-02-16T12:26:02;12.80;99.90
39021;DHT22;25188;51.958;5.842;2024-02-16T12:28:29;12.80;99.90
39021;DHT22;25188;51.958;5.842;2024-02-16T12:30:58;12.80;99.90
39021;DHT22;25188;51.958;5.842;2024-02-16T12:33:27;12.80;99.90
39021;DHT22;25188;51.958;5.842;2024-02-16T12:35:53;12.80;99.90
39021;DHT22;25188;51.958;5.842;2024-02-16T12:38:19;12.80;99.90
39021;DHT22;25188;51.958;5.842;2024-02-16T12:40:48;12.80;99.90
39021;DHT22;25188;51.958;5.842;2024-02-16T12:43:14;12.70;99.90
39021;DHT22;25188;51.958;5.842;2024-02-16T12:45:41;12.70;99.90
39021;DHT22;25188;51.958;5.842;2024-02-16T12:48:07;12.70;99.90
39021;DHT22;25188;51.958;5.842;2024-02-16T12:50:34;12.70;99.90
39021;DHT22;25188;51.958;5.842;2024-02-16T12:52:59;12.70;99.90
39021;DHT22;25188;51.958;5.842;2024-02-16T12:55:25;12.70;99.90
39021;DHT22;25188;51.958;5.842;2024-02-16T12:57:51;12.70;99.90
39021;DHT22;25188;51.958;5.842;2024-02-16T13:00:17;12.70;99.90
39021;DHT22;25188;51.958;5.842;2024-02-16T13:02:43;12.60;99.90
39021;DHT22;25188;51.958;5.842;2024-02-16T13:05:09;12.70;99.90
39021;DHT22;25188;51.958;5.842;2024-02-16T13:07:36;12.70;99.90
39021;DHT22;25188;51.958;5.842;2024-02-16T13:10:05;12.70;99.90
39021;DHT22;25188;51.958;5.842;2024-02-16T13:12:31;12.70;99.90
39021;DHT22;25188;51.958;5.842;2024-02-16T13:14:57;12.70;99.90
39021;DHT22;25188;51.958;5.842;2024-02-16T13:17:23;12.60;99.90
39021;DHT22;25188;51.958;5.842;2024-02-16T13:19:48;12.60;99.90
39021;DHT22;25188;51.958;5.842;2024-02-16T13:22:14;12.60;99.90
39021;DHT22;25188;51.958;5.842;2024-02-16T13:24:40;12.60;99.90
39021;DHT22;25188;51.958;5.842;2024-02-16T13:27:07;12.60;99.90
39021;DHT22;25188;51.958;5.842;2024-02-16T13:29:32;12.50;99.90
39021;DHT22;25188;51.958;5.842;2024-02-16T13:31:59;12.60;99.90
39021;DHT22;25188;51.958;5.842;2024-02-16T13:34:25;12.50;99.90
39021;DHT22;25188;51.958;5.842;2024-02-16T13:36:52;12.60;99.90
39021;DHT22;25188;51.958;5.842;2024-02-16T13:39:18;12.60;99.90
39021;DHT22;25188;51.958;5.842;2024-02-16T13:41:45;12.70;99.90
39021;DHT22;25188;51.958;5.842;2024-02-16T13:44:12;12.70;99.90
39021;DHT22;25188;51.958;5.842;2024-02-16T13:46:38;12.70;99.90
39021;DHT22;25188;51.958;5.842;2024-02-16T13:49:07;12.80;99.90
39021;DHT22;25188;51.958;5.842;2024-02-16T13:51:32;12.80;99.90
39021;DHT22;25188;51.958;5.842;2024-02-16T13:53:58;12.80;99.90
39021;DHT22;25188;51.958;5.842;2024-02-16T13:56:24;12.80;99.90
39021;DHT22;25188;51.958;5.842;2024-02-16T13:58:49;12.90;99.90
39021;DHT22;25188;51.958;5.842;2024-02-16T14:01:15;12.80;99.90
39021;DHT22;25188;51.958;5.842;2024-02-16T14:03:41;12.80;99.90
39021;DHT22;25188;51.958;5.842;2024-02-16T14:06:07;12.80;99.90
39021;DHT22;25188;51.958;5.842;2024-02-16T14:08:35;12.90;99.90
39021;DHT22;25188;51.958;5.842;2024-02-16T14:11:04;12.90;99.90
39021;DHT22;25188;51.958;5.842;2024-02-16T14:13:30;12.90;99.90
39021;DHT22;25188;51.958;5.842;2024-02-16T14:15:55;12.90;99.90
39021;DHT22;25188;51.958;5.842;2024-02-16T14:18:21;12.90;99.90
39021;DHT22;25188;51.958;5.842;2024-02-16T14:20:47;12.90;99.90
39021;DHT22;25188;51.958;5.842;2024-02-16T14:23:13;12.90;99.90
39021;DHT22;25188;51.958;5.842;2024-02-16T14:25:41;12.90;99.90
39021;DHT22;25188;51.958;5.842;2024-02-16T14:28:06;12.90;99.90
39021;DHT22;25188;51.958;5.842;2024-02-16T14:30:35;12.90;99.90
39021;DHT22;25188;51.958;5.842;2024-02-16T14:33:00;12.90;99.90
39021;DHT22;25188;51.958;5.842;2024-02-16T14:35:28;13.00;99.90
39021;DHT22;25188;51.958;5.842;2024-02-16T14:37:55;13.00;99.90
39021;DHT22;25188;51.958;5.842;2024-02-16T14:40:21;13.00;99.90
39021;DHT22;25188;51.958;5.842;2024-02-16T14:42:46;13.10;99.90
39021;DHT22;25188;51.958;5.842;2024-02-16T14:45:12;13.20;99.90
39021;DHT22;25188;51.958;5.842;2024-02-16T14:47:45;13.20;99.90
39021;DHT22;25188;51.958;5.842;2024-02-16T14:50:11;13.20;99.90
39021;DHT22;25188;51.958;5.842;2024-02-16T14:52:38;13.20;99.90
39021;DHT22;25188;51.958;5.842;2024-02-16T14:55:05;13.20;99.90
39021;DHT22;25188;51.958;5.842;2024-02-16T14:57:42;13.20;99.90
39021;DHT22;25188;51.958;5.842;2024-02-16T15:00:08;13.20;99.90
39021;DHT22;25188;51.958;5.842;2024-02-16T15:02:36;13.20;99.90
39021;DHT22;25188;51.958;5.842;2024-02-16T15:05:05;13.20;99.90
39021;DHT22;25188;51.958;5.842;2024-02-16T15:07:31;13.20;99.90
39021;DHT22;25188;51.958;5.842;2024-02-16T15:09:57;13.20;99.90
39021;DHT22;25188;51.958;5.842;2024-02-16T15:12:23;13.20;99.90
39021;DHT22;25188;51.958;5.842;2024-02-16T15:14:50;13.20;99.90
39021;DHT22;25188;51.958;5.842;2024-02-16T15:17:15;13.20;99.90
39021;DHT22;25188;51.958;5.842;2024-02-16T15:19:42;13.20;99.90
39021;DHT22;25188;51.958;5.842;2024-02-16T15:22:08;13.20;99.90
39021;DHT22;25188;51.958;5.842;2024-02-16T15:24:34;13.10;99.90
39021;DHT22;25188;51.958;5.842;2024-02-16T15:27:00;13.10;99.90